sensor_id;sensor_type;location;lat;lon;timestamp;pressure;altitude;pressure_sealevel;temperature;humidity
29467;BME280;60968;37.490;-122.288;2022-07-29T00:01:54;98420.75;;;22.52;49.81
29467;BME280;60968;37.490;-122.288;2022-07-29T00:04:55;98412.19;;;22.22;50.50
29467;BME280;60968;37.490;-122.288;2022-07-29T00:07:56;98414.38;;;21.91;51.31
29467;BME280;60968;37.490;-122.288;2022-07-29T00:10:56;98427.47;;;21.41;52.82
29467;BME280;60968;37.490;-122.288;2022-07-29T00:13:57;98430.06;;;21.03;53.93
29467;BME280;60968;37.490;-122.288;2022-07-29T00:16:58;98427.03;;;20.40;56.23
29467;BME280;60968;37.490;-122.288;2022-07-29T00:19:59;98424.47;;;20.11;57.80
29467;BME280;60968;37.490;-122.288;2022-07-29T00:23:00;98427.19;;;19.81;58.89
29467;BME280;60968;37.490;-122.288;2022-07-29T00:26:01;98430.16;;;19.60;60.31
29467;BME280;60968;37.490;-122.288;2022-07-29T00:29:03;98433.03;;;19.27;61.86
29467;BME280;60968;37.490;-122.288;2022-07-29T00:32:05;98427.84;;;19.25;62.70
29467;BME280;60968;37.490;-122.288;2022-07-29T00:35:06;98430.25;;;19.14;63.22
29467;BME280;60968;37.490;-122.288;2022-07-29T00:38:07;98427.69;;;19.43;62.53
29467;BME280;60968;37.490;-122.288;2022-07-29T00:41:08;98430.06;;;19.47;62.41
29467;BME280;60968;37.490;-122.288;2022-07-29T00:44:08;98430.69;;;19.36;63.23
29467;BME280;60968;37.490;-122.288;2022-07-29T00:47:11;98427.88;;;19.40;63.92
29467;BME280;60968;37.490;-122.288;2022-07-29T00:50:12;98434.91;;;19.25;63.76
29467;BME280;60968;37.490;-122.288;2022-07-29T00:53:14;98429.59;;;19.10;64.42
29467;BME280;60968;37.490;-122.288;2022-07-29T00:56:14;98442.50;;;19.00;64.91
29467;BME280;60968;37.490;-122.288;2022-07-29T00:59:15;98440.47;;;18.74;66.20
29467;BME280;60968;37.490;-122.288;2022-07-29T01:02:16;98437.16;;;18.54;67.47
29467;BME280;60968;37.490;-122.288;2022-07-29T01:05:19;98439.16;;;18.17;69.17
29467;BME280;60968;37.490;-122.288;2022-07-29T01:08:20;98437.53;;;17.98;70.11
29467;BME280;60968;37.490;-122.288;2022-07-29T01:11:22;98421.72;;;17.65;72.18
29467;BME280;60968;37.490;-122.288;2022-07-29T01:14:23;98434.28;;;17.42;73.26
29467;BME280;60968;37.490;-122.288;2022-07-29T01:17:24;98442.25;;;17.41;73.82
29467;BME280;60968;37.490;-122.288;2022-07-29T01:27:51;98442.25;;;17.06;75.85
29467;BME280;60968;37.490;-122.288;2022-07-29T01:30:56;98436.22;;;16.85;77.05
29467;BME280;60968;37.490;-122.288;2022-07-29T01:34:03;98445.19;;;16.44;79.20
29467;BME280;60968;37.490;-122.288;2022-07-29T01:38:05;98446.75;;;16.48;79.71
29467;BME280;60968;37.490;-122.288;2022-07-29T01:40:46;98452.97;;;16.47;80.26
29467;BME280;60968;37.490;-122.288;2022-07-29T01:44:02;98451.59;;;16.38;80.68
29467;BME280;60968;37.490;-122.288;2022-07-29T01:47:13;98454.88;;;16.24;81.55
29467;BME280;60968;37.490;-122.288;2022-07-29T01:50:17;98465.88;;;16.14;82.05
29467;BME280;60968;37.490;-122.288;2022-07-29T01:53:29;98450.59;;;16.03;82.97
29467;BME280;60968;37.490;-122.288;2022-07-29T01:56:32;98458.56;;;16.01;83.56
29467;BME280;60968;37.490;-122.288;2022-07-29T01:59:36;98451.41;;;16.05;83.24
29467;BME280;60968;37.490;-122.288;2022-07-29T02:02:40;98449.56;;;15.86;83.98
29467;BME280;60968;37.490;-122.288;2022-07-29T02:05:44;98439.72;;;15.71;85.22
29467;BME280;60968;37.490;-122.288;2022-07-29T02:08:47;98437.97;;;15.71;85.50
29467;BME280;60968;37.490;-122.288;2022-07-29T02:11:52;98444.25;;;15.67;86.06
29467;BME280;60968;37.490;-122.288;2022-07-29T02:14:54;98450.34;;;15.68;86.23
29467;BME280;60968;37.490;-122.288;2022-07-29T02:18:11;98455.53;;;15.69;86.03
29467;BME280;60968;37.490;-122.288;2022-07-29T02:21:16;98449.84;;;15.59;86.59
29467;BME280;60968;37.490;-122.288;2022-07-29T02:24:21;98441.50;;;15.50;86.61
29467;BME280;60968;37.490;-122.288;2022-07-29T02:27:23;98445.06;;;15.49;87.17
29467;BME280;60968;37.490;-122.288;2022-07-29T02:30:26;98450.25;;;15.30;88.05
29467;BME280;60968;37.490;-122.288;2022-07-29T02:33:30;98446.63;;;15.12;89.09
29467;BME280;60968;37.490;-122.288;2022-07-29T02:36:33;98454.88;;;15.23;88.66
29467;BME280;60968;37.490;-122.288;2022-07-29T02:39:34;98473.25;;;15.23;88.95
29467;BME280;60968;37.490;-122.288;2022-07-29T02:42:37;98479.38;;;15.23;88.58
29467;BME280;60968;37.490;-122.288;2022-07-29T02:45:39;98478.00;;;15.15;89.34
29467;BME280;60968;37.490;-122.288;2022-07-29T02:48:51;98485.06;;;14.90;90.64
29467;BME280;60968;37.490;-122.288;2022-07-29T02:52:01;98477.47;;;14.84;91.57
29467;BME280;60968;37.490;-122.288;2022-07-29T02:55:16;98485.34;;;14.61;92.81
29467;BME280;60968;37.490;-122.288;2022-07-29T02:58:31;98482.28;;;14.49;94.39
29467;BME280;60968;37.490;-122.288;2022-07-29T03:01:34;98484.00;;;14.50;93.88
29467;BME280;60968;37.490;-122.288;2022-07-29T03:04:35;98490.41;;;14.43;94.76
29467;BME280;60968;37.490;-122.288;2022-07-29T03:07:39;98487.44;;;14.29;95.68
29467;BME280;60968;37.490;-122.288;2022-07-29T03:10:44;98497.56;;;14.38;95.17
29467;BME280;60968;37.490;-122.288;2022-07-29T03:13:46;98501.00;;;14.16;96.66
29467;BME280;60968;37.490;-122.288;2022-07-29T03:16:48;98498.59;;;14.10;97.36
29467;BME280;60968;37.490;-122.288;2022-07-29T03:19:49;98505.06;;;14.25;96.75
29467;BME280;60968;37.490;-122.288;2022-07-29T03:22:51;98495.88;;;14.37;96.27
29467;BME280;60968;37.490;-122.288;2022-07-29T03:25:52;98505.13;;;14.46;95.60
29467;BME280;60968;37.490;-122.288;2022-07-29T03:28:53;98496.50;;;14.44;95.36
29467;BME280;60968;37.490;-122.288;2022-07-29T03:31:55;98495.66;;;14.43;95.08
29467;BME280;60968;37.490;-122.288;2022-07-29T03:34:56;98486.63;;;14.50;95.00
29467;BME280;60968;37.490;-122.288;2022-07-29T03:37:57;98481.50;;;14.47;94.77
29467;BME280;60968;37.490;-122.288;2022-07-29T03:41:01;98490.50;;;14.40;94.76
29467;BME280;60968;37.490;-122.288;2022-07-29T03:44:05;98488.31;;;14.29;95.97
29467;BME280;60968;37.490;-122.288;2022-07-29T03:47:08;98484.31;;;14.19;96.70
29467;BME280;60968;37.490;-122.288;2022-07-29T03:50:11;98493.06;;;13.94;97.44
29467;BME280;60968;37.490;-122.288;2022-07-29T03:53:13;98502.66;;;13.70;100.00
29467;BME280;60968;37.490;-122.288;2022-07-29T03:56:15;98496.06;;;13.58;100.00
29467;BME280;60968;37.490;-122.288;2022-07-29T03:59:17;98492.78;;;13.53;100.00
29467;BME280;60968;37.490;-122.288;2022-07-29T04:02:19;98496.03;;;13.60;100.00
29467;BME280;60968;37.490;-122.288;2022-07-29T04:05:20;98500.47;;;13.58;100.00
29467;BME280;60968;37.490;-122.288;2022-07-29T04:08:21;98502.22;;;13.57;100.00
29467;BME280;60968;37.490;-122.288;2022-07-29T04:11:22;98503.19;;;13.54;100.00
29467;BME280;60968;37.490;-122.288;2022-07-29T04:14:24;98498.75;;;13.57;100.00
29467;BME280;60968;37.490;-122.288;2022-07-29T04:17:25;98499.28;;;13.66;100.00
29467;BME280;60968;37.490;-122.288;2022-07-29T04:20:26;98502.50;;;13.75;100.00
29467;BME280;60968;37.490;-122.288;2022-07-29T04:23:30;98493.34;;;13.86;100.00
29467;BME280;60968;37.490;-122.288;2022-07-29T04:26:31;98502.00;;;13.88;100.00
29467;BME280;60968;37.490;-122.288;2022-07-29T04:29:32;98495.63;;;13.96;100.00
29467;BME280;60968;37.490;-122.288;2022-07-29T04:32:33;98503.50;;;13.96;99.63
29467;BME280;60968;37.490;-122.288;2022-07-29T04:35:36;98506.13;;;13.96;100.00
29467;BME280;60968;37.490;-122.288;2022-07-29T04:38:38;98508.44;;;14.03;98.98
29467;BME280;60968;37.490;-122.288;2022-07-29T04:41:39;98519.28;;;14.18;97.49
29467;BME280;60968;37.490;-122.288;2022-07-29T04:44:39;98514.13;;;14.16;96.97
29467;BME280;60968;37.490;-122.288;2022-07-29T04:47:40;98520.19;;;14.17;97.11
29467;BME280;60968;37.490;-122.288;2022-07-29T04:50:41;98525.69;;;14.09;97.98
29467;BME280;60968;37.490;-122.288;2022-07-29T04:53:42;98530.16;;;14.07;98.38
29467;BME280;60968;37.490;-122.288;2022-07-29T04:56:43;98535.38;;;14.07;98.00
29467;BME280;60968;37.490;-122.288;2022-07-29T04:59:44;98538.38;;;13.96;98.66
29467;BME280;60968;37.490;-122.288;2022-07-29T05:02:44;98538.88;;;13.82;99.80
29467;BME280;60968;37.490;-122.288;2022-07-29T05:05:45;98533.91;;;13.75;100.00
29467;BME280;60968;37.490;-122.288;2022-07-29T05:08:46;98542.25;;;13.86;99.89
29467;BME280;60968;37.490;-122.288;2022-07-29T05:11:47;98541.22;;;13.90;99.15
29467;BME280;60968;37.490;-122.288;2022-07-29T05:14:48;98547.59;;;13.83;99.10
29467;BME280;60968;37.490;-122.288;2022-07-29T05:17:48;98551.34;;;13.76;99.66
29467;BME280;60968;37.490;-122.288;2022-07-29T05:20:49;98558.31;;;13.75;100.00
29467;BME280;60968;37.490;-122.288;2022-07-29T05:23:50;98555.66;;;13.77;100.00
29467;BME280;60968;37.490;-122.288;2022-07-29T05:26:52;98559.09;;;13.79;99.83
29467;BME280;60968;37.490;-122.288;2022-07-29T05:29:53;98560.31;;;13.68;100.00
29467;BME280;60968;37.490;-122.288;2022-07-29T05:32:55;98561.09;;;13.70;100.00
29467;BME280;60968;37.490;-122.288;2022-07-29T05:35:55;98552.81;;;13.58;100.00
29467;BME280;60968;37.490;-122.288;2022-07-29T05:38:56;98550.72;;;13.42;100.00
29467;BME280;60968;37.490;-122.288;2022-07-29T05:41:57;98547.16;;;13.45;100.00
29467;BME280;60968;37.490;-122.288;2022-07-29T05:44:58;98544.47;;;13.46;100.00
29467;BME280;60968;37.490;-122.288;2022-07-29T05:47:59;98546.19;;;13.47;100.00
29467;BME280;60968;37.490;-122.288;2022-07-29T05:51:00;98533.09;;;13.47;100.00
29467;BME280;60968;37.490;-122.288;2022-07-29T05:54:01;98546.31;;;13.43;100.00
29467;BME280;60968;37.490;-122.288;2022-07-29T05:57:02;98532.03;;;13.25;100.00
29467;BME280;60968;37.490;-122.288;2022-07-29T06:00:03;98538.59;;;13.11;100.00
29467;BME280;60968;37.490;-122.288;2022-07-29T06:03:04;98539.44;;;13.12;100.00
29467;BME280;60968;37.490;-122.288;2022-07-29T06:06:05;98533.97;;;13.19;100.00
29467;BME280;60968;37.490;-122.288;2022-07-29T06:09:06;98542.78;;;13.17;100.00
29467;BME280;60968;37.490;-122.288;2022-07-29T06:12:07;98537.22;;;13.26;100.00
29467;BME280;60968;37.490;-122.288;2022-07-29T06:15:08;98533.59;;;13.32;100.00
29467;BME280;60968;37.490;-122.288;2022-07-29T06:18:09;98537.00;;;13.34;100.00
29467;BME280;60968;37.490;-122.288;2022-07-29T06:21:10;98535.31;;;13.31;100.00
29467;BME280;60968;37.490;-122.288;2022-07-29T06:24:12;98546.59;;;13.35;100.00
29467;BME280;60968;37.490;-122.288;2022-07-29T06:27:13;98547.50;;;13.32;100.00
29467;BME280;60968;37.490;-122.288;2022-07-29T06:30:14;98548.28;;;13.36;100.00
29467;BME280;60968;37.490;-122.288;2022-07-29T06:33:18;98548.34;;;13.33;100.00
29467;BME280;60968;37.490;-122.288;2022-07-29T06:36:19;98545.66;;;13.36;100.00
29467;BME280;60968;37.490;-122.288;2022-07-29T06:39:20;98548.09;;;13.42;100.00
29467;BME280;60968;37.490;-122.288;2022-07-29T06:42:24;98545.22;;;13.50;100.00
29467;BME280;60968;37.490;-122.288;2022-07-29T06:45:25;98548.69;;;13.50;100.00
29467;BME280;60968;37.490;-122.288;2022-07-29T06:48:27;98549.53;;;13.51;100.00
29467;BME280;60968;37.490;-122.288;2022-07-29T06:51:28;98550.19;;;13.58;100.00
29467;BME280;60968;37.490;-122.288;2022-07-29T06:54:29;98538.50;;;13.68;100.00
29467;BME280;60968;37.490;-122.288;2022-07-29T06:57:30;98545.44;;;13.69;100.00
29467;BME280;60968;37.490;-122.288;2022-07-29T07:00:30;98545.66;;;13.63;100.00
29467;BME280;60968;37.490;-122.288;2022-07-29T07:03:32;98546.56;;;13.62;100.00
29467;BME280;60968;37.490;-122.288;2022-07-29T07:06:33;98550.81;;;13.66;100.00
29467;BME280;60968;37.490;-122.288;2022-07-29T07:09:34;98551.34;;;13.76;100.00
29467;BME280;60968;37.490;-122.288;2022-07-29T07:12:34;98560.25;;;13.70;100.00
29467;BME280;60968;37.490;-122.288;2022-07-29T07:15:36;98561.09;;;13.70;100.00
29467;BME280;60968;37.490;-122.288;2022-07-29T07:18:37;98553.41;;;13.66;100.00
29467;BME280;60968;37.490;-122.288;2022-07-29T07:21:39;98554.44;;;13.62;100.00
29467;BME280;60968;37.490;-122.288;2022-07-29T07:24:40;98560.31;;;13.68;100.00
29467;BME280;60968;37.490;-122.288;2022-07-29T07:27:40;98570.03;;;13.65;100.00
29467;BME280;60968;37.490;-122.288;2022-07-29T07:30:41;98564.72;;;13.66;100.00
29467;BME280;60968;37.490;-122.288;2022-07-29T07:33:42;98566.59;;;13.63;100.00
29467;BME280;60968;37.490;-122.288;2022-07-29T07:36:43;98581.41;;;13.64;100.00
29467;BME280;60968;37.490;-122.288;2022-07-29T07:39:44;98564.91;;;13.62;100.00
29467;BME280;60968;37.490;-122.288;2022-07-29T07:42:44;98570.25;;;13.57;100.00
29467;BME280;60968;37.490;-122.288;2022-07-29T07:45:45;98565.00;;;13.59;100.00
29467;BME280;60968;37.490;-122.288;2022-07-29T07:48:46;98570.53;;;13.49;100.00
29467;BME280;60968;37.490;-122.288;2022-07-29T07:51:47;98568.63;;;13.54;100.00
29467;BME280;60968;37.490;-122.288;2022-07-29T07:54:48;98569.97;;;13.66;100.00
29467;BME280;60968;37.490;-122.288;2022-07-29T07:57:49;98575.50;;;13.57;100.00
29467;BME280;60968;37.490;-122.288;2022-07-29T08:00:50;98562.34;;;13.60;100.00
29467;BME280;60968;37.490;-122.288;2022-07-29T08:03:51;98554.56;;;13.57;100.00
29467;BME280;60968;37.490;-122.288;2022-07-29T08:06:52;98562.56;;;13.52;100.00
29467;BME280;60968;37.490;-122.288;2022-07-29T08:09:53;98558.50;;;13.44;100.00
29467;BME280;60968;37.490;-122.288;2022-07-29T08:12:54;98561.13;;;13.44;100.00
29467;BME280;60968;37.490;-122.288;2022-07-29T08:15:55;98554.94;;;13.46;100.00
29467;BME280;60968;37.490;-122.288;2022-07-29T08:18:55;98560.63;;;13.59;100.00
29467;BME280;60968;37.490;-122.288;2022-07-29T08:21:57;98553.59;;;13.60;100.00
29467;BME280;60968;37.490;-122.288;2022-07-29T08:24:57;98542.00;;;13.68;100.00
29467;BME280;60968;37.490;-122.288;2022-07-29T08:27:59;98537.91;;;13.60;100.00
29467;BME280;60968;37.490;-122.288;2022-07-29T08:31:00;98550.81;;;13.66;100.00
29467;BME280;60968;37.490;-122.288;2022-07-29T08:34:00;98548.72;;;13.76;100.00
29467;BME280;60968;37.490;-122.288;2022-07-29T08:37:01;98547.84;;;13.75;100.00
29467;BME280;60968;37.490;-122.288;2022-07-29T08:40:02;98550.28;;;13.81;100.00
29467;BME280;60968;37.490;-122.288;2022-07-29T08:43:08;98555.66;;;13.77;100.00
29467;BME280;60968;37.490;-122.288;2022-07-29T08:46:09;98561.69;;;13.79;100.00
29467;BME280;60968;37.490;-122.288;2022-07-29T08:49:10;98555.59;;;13.78;100.00
29467;BME280;60968;37.490;-122.288;2022-07-29T08:52:11;98548.91;;;13.69;100.00
29467;BME280;60968;37.490;-122.288;2022-07-29T08:55:15;98551.59;;;13.68;100.00
29467;BME280;60968;37.490;-122.288;2022-07-29T08:58:17;98542.72;;;13.72;100.00
29467;BME280;60968;37.490;-122.288;2022-07-29T09:01:22;98532.09;;;13.77;100.00
29467;BME280;60968;37.490;-122.288;2022-07-29T09:04:25;98533.16;;;13.71;100.00
29467;BME280;60968;37.490;-122.288;2022-07-29T09:07:28;98533.97;;;13.73;100.00
29467;BME280;60968;37.490;-122.288;2022-07-29T09:10:29;98531.41;;;13.71;100.00
29467;BME280;60968;37.490;-122.288;2022-07-29T09:13:30;98524.41;;;13.72;100.00
29467;BME280;60968;37.490;-122.288;2022-07-29T09:19:48;98528.31;;;13.85;100.00
29467;BME280;60968;37.490;-122.288;2022-07-29T09:22:49;98530.88;;;13.87;100.00
29467;BME280;60968;37.490;-122.288;2022-07-29T09:25:50;98523.06;;;13.85;100.00
29467;BME280;60968;37.490;-122.288;2022-07-29T09:28:51;98526.72;;;13.81;100.00
29467;BME280;60968;37.490;-122.288;2022-07-29T09:31:53;98525.03;;;13.79;100.00
29467;BME280;60968;37.490;-122.288;2022-07-29T09:35:19;98526.78;;;13.78;100.00
29467;BME280;60968;37.490;-122.288;2022-07-29T09:38:21;98524.16;;;13.80;100.00
29467;BME280;60968;37.490;-122.288;2022-07-29T09:41:22;98517.56;;;13.68;100.00
29467;BME280;60968;37.490;-122.288;2022-07-29T09:44:23;98522.13;;;13.61;100.00
29467;BME280;60968;37.490;-122.288;2022-07-29T09:47:49;98519.34;;;13.67;100.00
29467;BME280;60968;37.490;-122.288;2022-07-29T09:50:50;98509.22;;;13.57;100.00
29467;BME280;60968;37.490;-122.288;2022-07-29T09:53:51;98509.88;;;13.63;100.00
29467;BME280;60968;37.490;-122.288;2022-07-29T09:56:54;98500.13;;;13.67;100.00
29467;BME280;60968;37.490;-122.288;2022-07-29T10:00:03;98506.91;;;13.72;100.00
29467;BME280;60968;37.490;-122.288;2022-07-29T10:03:04;98497.69;;;13.62;100.00
29467;BME280;60968;37.490;-122.288;2022-07-29T10:06:10;98506.00;;;13.73;100.00
29467;BME280;60968;37.490;-122.288;2022-07-29T10:09:11;98496.19;;;13.80;100.00
29467;BME280;60968;37.490;-122.288;2022-07-29T10:12:13;98494.28;;;13.85;100.00
29467;BME280;60968;37.490;-122.288;2022-07-29T10:15:15;98496.00;;;13.85;100.00
29467;BME280;60968;37.490;-122.288;2022-07-29T10:18:15;98498.09;;;13.75;100.00
29467;BME280;60968;37.490;-122.288;2022-07-29T10:21:17;98494.59;;;13.76;100.00
29467;BME280;60968;37.490;-122.288;2022-07-29T10:24:18;98495.44;;;13.77;100.00
29467;BME280;60968;37.490;-122.288;2022-07-29T10:27:20;98491.00;;;13.79;100.00
29467;BME280;60968;37.490;-122.288;2022-07-29T10:30:22;98494.59;;;13.76;100.00
29467;BME280;60968;37.490;-122.288;2022-07-29T10:43:19;98493.78;;;13.74;100.00
29467;BME280;60968;37.490;-122.288;2022-07-29T10:46:22;98486.63;;;13.79;100.00
29467;BME280;60968;37.490;-122.288;2022-07-29T10:49:25;98487.91;;;13.67;100.00
29467;BME280;60968;37.490;-122.288;2022-07-29T10:55:51;98492.97;;;13.72;100.00
29467;BME280;60968;37.490;-122.288;2022-07-29T11:05:54;98494.34;;;13.57;100.00
29467;BME280;60968;37.490;-122.288;2022-07-29T11:09:18;98492.63;;;13.58;100.00
29467;BME280;60968;37.490;-122.288;2022-07-29T11:15:54;98493.56;;;13.55;100.00
29467;BME280;60968;37.490;-122.288;2022-07-29T11:22:35;98486.47;;;13.59;100.00
29467;BME280;60968;37.490;-122.288;2022-07-29T11:25:36;98493.50;;;13.57;100.00
29467;BME280;60968;37.490;-122.288;2022-07-29T11:32:08;98503.03;;;13.59;100.00
29467;BME280;60968;37.490;-122.288;2022-07-29T11:35:21;98497.50;;;13.68;100.00
29467;BME280;60968;37.490;-122.288;2022-07-29T11:41:24;98491.25;;;13.71;100.00
29467;BME280;60968;37.490;-122.288;2022-07-29T11:48:05;98495.88;;;13.64;100.00
29467;BME280;60968;37.490;-122.288;2022-07-29T11:51:10;98494.81;;;13.70;100.00
29467;BME280;60968;37.490;-122.288;2022-07-29T11:54:13;98487.03;;;13.67;100.00
29467;BME280;60968;37.490;-122.288;2022-07-29T11:57:18;98495.53;;;13.48;100.00
29467;BME280;60968;37.490;-122.288;2022-07-29T12:03:29;98493.41;;;13.60;100.00
29467;BME280;60968;37.490;-122.288;2022-07-29T12:06:30;98498.50;;;13.64;100.00
29467;BME280;60968;37.490;-122.288;2022-07-29T12:09:31;98504.28;;;13.72;100.00
29467;BME280;60968;37.490;-122.288;2022-07-29T12:12:33;98507.78;;;13.73;100.00
29467;BME280;60968;37.490;-122.288;2022-07-29T12:15:34;98509.38;;;13.77;100.00
29467;BME280;60968;37.490;-122.288;2022-07-29T12:18:35;98498.50;;;13.64;100.00
29467;BME280;60968;37.490;-122.288;2022-07-29T12:21:55;98497.63;;;13.64;100.00
29467;BME280;60968;37.490;-122.288;2022-07-29T12:25:01;98499.81;;;13.51;100.00
29467;BME280;60968;37.490;-122.288;2022-07-29T12:28:05;98502.38;;;13.52;100.00
29467;BME280;60968;37.490;-122.288;2022-07-29T12:31:13;98496.41;;;13.49;100.00
29467;BME280;60968;37.490;-122.288;2022-07-29T12:34:15;98494.69;;;13.48;100.00
29467;BME280;60968;37.490;-122.288;2022-07-29T12:37:16;98495.47;;;13.50;100.00
29467;BME280;60968;37.490;-122.288;2022-07-29T12:40:18;98498.47;;;13.39;100.00
29467;BME280;60968;37.490;-122.288;2022-07-29T12:43:23;98502.91;;;13.37;100.00
29467;BME280;60968;37.490;-122.288;2022-07-29T12:46:24;98505.81;;;13.26;100.00
29467;BME280;60968;37.490;-122.288;2022-07-29T12:49:25;98511.84;;;13.30;100.00
29467;BME280;60968;37.490;-122.288;2022-07-29T12:52:33;98502.13;;;13.33;100.00
29467;BME280;60968;37.490;-122.288;2022-07-29T12:55:41;98498.81;;;13.28;100.00
29467;BME280;60968;37.490;-122.288;2022-07-29T12:58:42;98501.47;;;13.27;100.00
29467;BME280;60968;37.490;-122.288;2022-07-29T13:01:44;98499.66;;;13.29;100.00
29467;BME280;60968;37.490;-122.288;2022-07-29T13:04:58;98494.94;;;13.40;100.00
29467;BME280;60968;37.490;-122.288;2022-07-29T13:08:10;98497.50;;;13.42;100.00
29467;BME280;60968;37.490;-122.288;2022-07-29T13:11:28;98504.22;;;13.50;100.00
29467;BME280;60968;37.490;-122.288;2022-07-29T13:14:32;98512.25;;;13.44;100.00
29467;BME280;60968;37.490;-122.288;2022-07-29T13:17:40;98507.00;;;13.44;100.00
29467;BME280;60968;37.490;-122.288;2022-07-29T13:20:41;98506.81;;;13.50;100.00
29467;BME280;60968;37.490;-122.288;2022-07-29T13:23:42;98505.81;;;13.54;100.00
29467;BME280;60968;37.490;-122.288;2022-07-29T13:26:43;98501.84;;;13.68;100.00
29467;BME280;60968;37.490;-122.288;2022-07-29T13:29:45;98519.59;;;13.85;100.00
29467;BME280;60968;37.490;-122.288;2022-07-29T13:32:46;98514.94;;;13.93;100.00
29467;BME280;60968;37.490;-122.288;2022-07-29T13:35:46;98520.69;;;14.03;100.00
29467;BME280;60968;37.490;-122.288;2022-07-29T13:38:47;98516.09;;;14.10;100.00
29467;BME280;60968;37.490;-122.288;2022-07-29T13:41:48;98526.19;;;14.20;100.00
29467;BME280;60968;37.490;-122.288;2022-07-29T13:44:49;98526.84;;;14.26;100.00
29467;BME280;60968;37.490;-122.288;2022-07-29T13:47:50;98525.56;;;14.14;100.00
29467;BME280;60968;37.490;-122.288;2022-07-29T13:50:50;98525.19;;;14.23;100.00
29467;BME280;60968;37.490;-122.288;2022-07-29T13:53:51;98528.13;;;14.15;100.00
29467;BME280;60968;37.490;-122.288;2022-07-29T13:56:52;98517.41;;;14.21;100.00
29467;BME280;60968;37.490;-122.288;2022-07-29T13:59:53;98523.91;;;14.35;100.00
29467;BME280;60968;37.490;-122.288;2022-07-29T14:02:54;98529.53;;;14.48;99.31
29467;BME280;60968;37.490;-122.288;2022-07-29T14:05:55;98525.00;;;14.51;98.72
29467;BME280;60968;37.490;-122.288;2022-07-29T14:08:56;98532.59;;;14.59;98.89
29467;BME280;60968;37.490;-122.288;2022-07-29T14:11:57;98535.06;;;14.64;97.61
29467;BME280;60968;37.490;-122.288;2022-07-29T14:14:58;98526.19;;;14.68;95.78
29467;BME280;60968;37.490;-122.288;2022-07-29T14:18:01;98525.09;;;14.73;95.17
29467;BME280;60968;37.490;-122.288;2022-07-29T14:21:02;98527.91;;;14.69;96.12
29467;BME280;60968;37.490;-122.288;2022-07-29T14:24:05;98529.59;;;14.92;95.37
29467;BME280;60968;37.490;-122.288;2022-07-29T14:27:07;98527.72;;;14.96;94.95
29467;BME280;60968;37.490;-122.288;2022-07-29T14:30:08;98537.81;;;15.06;94.09
29467;BME280;60968;37.490;-122.288;2022-07-29T14:33:11;98537.59;;;15.11;93.75
29467;BME280;60968;37.490;-122.288;2022-07-29T14:36:15;98539.00;;;14.98;93.87
29467;BME280;60968;37.490;-122.288;2022-07-29T14:39:16;98551.03;;;15.03;94.43
29467;BME280;60968;37.490;-122.288;2022-07-29T14:42:17;98552.31;;;15.15;93.52
29467;BME280;60968;37.490;-122.288;2022-07-29T14:45:17;98555.28;;;15.28;92.34
29467;BME280;60968;37.490;-122.288;2022-07-29T14:48:18;98557.72;;;15.33;92.65
29467;BME280;60968;37.490;-122.288;2022-07-29T14:51:19;98562.31;;;15.27;91.40
29467;BME280;60968;37.490;-122.288;2022-07-29T14:54:20;98564.56;;;15.37;91.35
29467;BME280;60968;37.490;-122.288;2022-07-29T14:57:22;98567.28;;;15.56;90.92
29467;BME280;60968;37.490;-122.288;2022-07-29T15:00:23;98562.38;;;15.69;89.65
29467;BME280;60968;37.490;-122.288;2022-07-29T15:03:23;98565.53;;;15.77;88.93
29467;BME280;60968;37.490;-122.288;2022-07-29T15:06:24;98568.38;;;15.72;87.84
29467;BME280;60968;37.490;-122.288;2022-07-29T15:09:25;98552.97;;;15.85;87.98
29467;BME280;60968;37.490;-122.288;2022-07-29T15:12:26;98556.38;;;15.87;86.85
29467;BME280;60968;37.490;-122.288;2022-07-29T15:15:27;98561.38;;;15.93;87.52
29467;BME280;60968;37.490;-122.288;2022-07-29T15:18:28;98561.34;;;16.14;87.39
29467;BME280;60968;37.490;-122.288;2022-07-29T15:21:29;98565.47;;;16.20;86.44
29467;BME280;60968;37.490;-122.288;2022-07-29T15:24:30;98561.53;;;16.49;85.63
29467;BME280;60968;37.490;-122.288;2022-07-29T15:27:30;98561.16;;;17.33;80.39
29467;BME280;60968;37.490;-122.288;2022-07-29T15:30:32;98564.59;;;17.53;79.41
29467;BME280;60968;37.490;-122.288;2022-07-29T15:33:33;98563.38;;;17.41;79.13
29467;BME280;60968;37.490;-122.288;2022-07-29T15:36:35;98566.03;;;17.41;78.13
29467;BME280;60968;37.490;-122.288;2022-07-29T15:39:36;98569.06;;;17.14;80.06
29467;BME280;60968;37.490;-122.288;2022-07-29T15:42:36;98577.69;;;17.18;79.29
29467;BME280;60968;37.490;-122.288;2022-07-29T15:45:39;98582.53;;;17.08;81.28
29467;BME280;60968;37.490;-122.288;2022-07-29T15:48:40;98581.06;;;17.39;79.15
29467;BME280;60968;37.490;-122.288;2022-07-29T15:51:41;98579.38;;;17.55;77.64
29467;BME280;60968;37.490;-122.288;2022-07-29T15:54:41;98585.59;;;17.89;76.41
29467;BME280;60968;37.490;-122.288;2022-07-29T15:57:42;98580.03;;;17.95;74.69
29467;BME280;60968;37.490;-122.288;2022-07-29T16:00:43;98582.66;;;20.91;64.62
29467;BME280;60968;37.490;-122.288;2022-07-29T16:03:44;98568.25;;;23.90;52.63
29467;BME280;60968;37.490;-122.288;2022-07-29T16:06:46;98569.75;;;25.51;48.00
29467;BME280;60968;37.490;-122.288;2022-07-29T16:09:47;98566.41;;;24.82;50.07
29467;BME280;60968;37.490;-122.288;2022-07-29T16:12:47;98565.44;;;27.06;43.00
29467;BME280;60968;37.490;-122.288;2022-07-29T16:15:48;98568.00;;;28.15;40.52